createdAt,value
2022-12-04T00:01:46.544Z,6.07
2022-12-04T00:06:58.616Z,6.11
2022-12-04T00:12:02.999Z,6.09
2022-12-04T00:17:07.043Z,6.05
2022-12-04T00:22:12.432Z,5.93
2022-12-04T00:27:16.381Z,5.90
2022-12-04T00:32:20.488Z,5.92
2022-12-04T00:37:25.791Z,6.26
2022-12-04T00:42:29.774Z,6.02
2022-12-04T00:47:34.232Z,6.01
2022-12-04T00:52:39.612Z,6.13
2022-12-04T00:57:43.594Z,6.05
2022-12-04T01:02:48.548Z,5.85
2022-12-04T01:07:55.104Z,5.88
2022-12-04T01:12:59.137Z,5.91
2022-12-04T01:18:03.457Z,5.90
2022-12-04T01:23:08.815Z,5.74
2022-12-04T01:28:13.117Z,5.70
2022-12-04T01:33:17.258Z,5.50
2022-12-04T01:38:22.777Z,5.53
2022-12-04T01:43:28.232Z,5.55
2022-12-04T01:48:34.806Z,5.47
2022-12-04T01:53:43.113Z,5.48
2022-12-04T01:58:53.660Z,5.45
2022-12-04T02:03:58.836Z,5.15
2022-12-04T02:09:05.389Z,5.15
2022-12-04T02:14:23.240Z,5.39
2022-12-04T02:20:01.785Z,5.22
2022-12-04T02:25:14.029Z,5.32
2022-12-04T02:30:19.736Z,5.59
2022-12-04T02:35:28.218Z,5.49
2022-12-04T02:40:40.856Z,5.40
2022-12-04T02:45:50.204Z,5.35
2022-12-04T02:50:57.203Z,5.43
2022-12-04T02:56:05.720Z,5.57
2022-12-04T03:01:23.947Z,5.35
2022-12-04T03:06:32.647Z,5.38
2022-12-04T03:11:39.691Z,5.31
2022-12-04T03:16:47.338Z,5.20
2022-12-04T03:21:55.419Z,5.45
2022-12-04T03:27:04.972Z,5.40
2022-12-04T03:32:14.628Z,5.35
2022-12-04T03:37:23.717Z,5.64
2022-12-04T03:42:33.462Z,5.56
2022-12-04T03:47:44.354Z,5.53
2022-12-04T03:52:54.288Z,5.53
2022-12-04T03:58:05.274Z,5.72
2022-12-04T04:03:15.813Z,5.53
2022-12-04T04:08:31.429Z,5.69
2022-12-04T04:14:01.149Z,5.61
2022-12-04T04:19:26.119Z,5.59
2022-12-04T04:24:39.971Z,5.76
2022-12-04T04:29:52.289Z,5.78
2022-12-04T04:35:07.037Z,5.85
2022-12-04T04:40:22.593Z,5.97
2022-12-04T04:45:31.543Z,5.77
2022-12-04T04:50:38.841Z,5.66
2022-12-04T04:55:44.311Z,5.86
2022-12-04T05:01:00.162Z,5.69
2022-12-04T05:06:06.360Z,5.74
2022-12-04T05:11:14.118Z,5.91
2022-12-04T05:16:19.027Z,5.88
2022-12-04T05:21:24.733Z,5.75
2022-12-04T05:26:29.596Z,5.66
2022-12-04T05:31:33.953Z,5.53
2022-12-04T05:36:39.408Z,5.87
2022-12-04T05:41:43.388Z,6.12
2022-12-04T05:46:47.955Z,6.06
2022-12-04T05:51:54.007Z,5.98
2022-12-04T05:56:58.762Z,5.84
2022-12-04T06:02:02.866Z,5.60
2022-12-04T06:07:11.334Z,5.69
2022-12-04T06:12:15.770Z,5.52
2022-12-04T06:17:20.723Z,5.51
2022-12-04T06:22:26.167Z,5.58
2022-12-04T06:27:30.704Z,5.58
2022-12-04T06:32:35.194Z,5.68
2022-12-04T06:37:40.547Z,5.77
2022-12-04T06:42:44.768Z,5.85
2022-12-04T06:47:49.480Z,5.93
2022-12-04T06:52:54.907Z,6.16
2022-12-04T06:57:59.342Z,6.51
2022-12-04T07:03:05.845Z,6.49
2022-12-04T07:08:11.899Z,6.99
2022-12-04T07:13:16.063Z,7.65
2022-12-04T07:18:20.590Z,8.16
2022-12-04T07:23:25.995Z,8.29
2022-12-04T07:28:30.043Z,8.03
2022-12-04T07:33:34.825Z,7.92
2022-12-04T07:38:40.340Z,7.82
2022-12-04T07:43:44.977Z,8.58
2022-12-04T07:48:49.131Z,8.36
2022-12-04T07:54:02.014Z,8.52
2022-12-04T07:59:07.496Z,8.19
2022-12-04T08:04:13.009Z,7.91
2022-12-04T08:09:20.694Z,7.71
2022-12-04T08:14:25.702Z,7.32
2022-12-04T08:19:29.920Z,6.95
2022-12-04T08:24:35.863Z,6.74
2022-12-04T08:29:40.286Z,6.77
2022-12-04T08:34:44.363Z,6.75
2022-12-04T08:39:50.216Z,7.01
2022-12-04T08:44:54.453Z,7.05
2022-12-04T08:49:58.606Z,6.79
2022-12-04T08:55:03.999Z,6.90
2022-12-04T09:00:12.266Z,7.22
2022-12-04T09:05:16.301Z,6.98
2022-12-04T09:10:21.935Z,6.94
2022-12-04T09:15:26.447Z,7.19
2022-12-04T09:20:33.099Z,7.24
2022-12-04T09:25:39.124Z,7.46
2022-12-04T09:30:43.815Z,7.54
2022-12-04T09:35:48.673Z,7.30
2022-12-04T09:41:06.170Z,7.18
2022-12-04T09:46:17.024Z,7.08
2022-12-04T09:51:25.079Z,7.10
2022-12-04T09:56:32.259Z,6.93
2022-12-04T10:01:44.414Z,7.15
2022-12-04T10:06:55.645Z,7.25
2022-12-04T10:12:14.818Z,7.26
2022-12-04T10:17:41.393Z,7.07
2022-12-04T10:22:56.860Z,6.92
2022-12-04T10:28:13.557Z,6.90
2022-12-04T10:33:21.711Z,7.08
2022-12-04T10:38:35.553Z,7.10
2022-12-04T10:43:45.377Z,7.14
2022-12-04T10:48:52.211Z,7.01
2022-12-04T10:53:58.653Z,6.89
2022-12-04T10:59:06.568Z,6.97
2022-12-04T11:04:26.154Z,7.04
2022-12-04T11:09:31.269Z,7.04
2022-12-04T11:14:37.693Z,7.08
2022-12-04T11:19:41.661Z,7.05
2022-12-04T11:24:52.289Z,6.84
2022-12-04T11:29:58.606Z,6.96
2022-12-04T11:35:14.008Z,6.79
2022-12-04T11:40:20.074Z,6.86
2022-12-04T11:45:26.032Z,6.96
2022-12-04T11:50:44.205Z,7.09
2022-12-04T11:56:00.824Z,6.89
2022-12-04T12:01:21.328Z,6.84
2022-12-04T12:06:34.186Z,6.76
2022-12-04T12:11:47.672Z,6.92
2022-12-04T12:17:03.843Z,6.85
2022-12-04T12:22:18.061Z,6.94
2022-12-04T12:27:40.253Z,7.02
2022-12-04T12:32:59.322Z,6.96
2022-12-04T12:38:07.089Z,6.87
2022-12-04T12:43:16.926Z,6.86
2022-12-04T12:48:30.289Z,6.92
2022-12-04T12:53:41.176Z,6.73
2022-12-04T12:58:52.381Z,6.76
2022-12-04T13:04:06.855Z,6.75
2022-12-04T13:09:19.636Z,6.78
2022-12-04T13:14:36.146Z,6.71
2022-12-04T13:19:49.846Z,6.74
2022-12-04T13:25:28.036Z,6.77
2022-12-04T13:30:43.090Z,6.69
2022-12-04T13:36:17.096Z,6.74
2022-12-04T13:41:24.074Z,6.73
2022-12-04T13:46:34.398Z,6.95
2022-12-04T13:51:41.853Z,6.91
2022-12-04T13:56:58.200Z,6.80
2022-12-04T14:02:14.703Z,6.71
2022-12-04T14:07:33.137Z,6.62
2022-12-04T14:12:44.187Z,6.68
2022-12-04T14:18:03.301Z,6.52
2022-12-04T14:23:27.480Z,6.46
2022-12-04T14:28:57.622Z,6.61
2022-12-04T14:34:21.869Z,6.36
2022-12-04T14:39:36.049Z,6.29
2022-12-04T14:44:42.517Z,6.35
2022-12-04T14:50:04.148Z,6.26
2022-12-04T14:55:29.056Z,6.14
2022-12-04T15:00:41.908Z,5.94
2022-12-04T15:06:07.592Z,6.03
2022-12-04T15:11:38.729Z,5.89
2022-12-04T15:16:45.644Z,5.94
2022-12-04T15:21:50.532Z,6.20
2022-12-04T15:27:02.771Z,6.04
2022-12-04T15:32:13.730Z,5.84
2022-12-04T15:37:24.031Z,5.82
2022-12-04T15:42:31.540Z,5.80
2022-12-04T15:47:54.949Z,5.98
2022-12-04T15:53:11.213Z,6.16
2022-12-04T15:58:30.385Z,6.10
2022-12-04T16:03:48.352Z,6.00
2022-12-04T16:09:00.695Z,6.20
2022-12-04T16:14:20.363Z,6.32
2022-12-04T16:19:31.740Z,6.44
2022-12-04T16:24:35.833Z,6.10
2022-12-04T16:29:40.112Z,6.05
2022-12-04T16:34:45.636Z,6.05
2022-12-04T16:39:50.300Z,6.04
2022-12-04T16:44:55.082Z,6.17
2022-12-04T16:50:02.550Z,6.14
2022-12-04T16:55:17.520Z,6.15
2022-12-04T17:00:22.692Z,6.09
2022-12-04T17:05:30.579Z,6.25
2022-12-04T17:10:35.321Z,6.13
2022-12-04T17:15:39.752Z,6.20
2022-12-04T17:20:45.678Z,6.23
2022-12-04T17:25:50.067Z,6.34
2022-12-04T17:30:54.110Z,6.19
2022-12-04T17:36:00.450Z,5.97
2022-12-04T17:41:06.077Z,5.91
2022-12-04T17:46:11.354Z,5.98
2022-12-04T17:51:20.415Z,6.06
2022-12-04T17:56:25.981Z,6.06
2022-12-04T18:01:31.035Z,5.91
2022-12-04T18:06:39.469Z,6.09
2022-12-04T18:11:47.813Z,6.19
2022-12-04T18:16:54.832Z,6.08
2022-12-04T18:22:00.502Z,5.87
2022-12-04T18:27:05.402Z,5.75
2022-12-04T18:32:10.152Z,5.76
2022-12-04T18:37:16.975Z,5.71
2022-12-04T18:42:21.026Z,5.72
2022-12-04T18:47:26.914Z,5.72
2022-12-04T18:52:36.573Z,5.69
2022-12-04T18:57:40.561Z,5.78
2022-12-04T19:02:46.371Z,5.84
2022-12-04T19:07:54.257Z,5.68
2022-12-04T19:12:58.706Z,6.05
2022-12-04T19:18:04.113Z,6.01
2022-12-04T19:23:09.841Z,5.94
2022-12-04T19:28:14.124Z,5.79
2022-12-04T19:33:18.186Z,5.88
2022-12-04T19:38:23.799Z,5.90
2022-12-04T19:43:27.759Z,5.75
2022-12-04T19:48:32.277Z,5.76
2022-12-04T19:53:41.343Z,5.78
2022-12-04T19:58:45.813Z,5.73
2022-12-04T20:03:51.052Z,5.86
2022-12-04T20:08:58.099Z,5.53
2022-12-04T20:14:05.921Z,5.36
2022-12-04T20:19:14.552Z,5.68
2022-12-04T20:24:20.127Z,5.24
2022-12-04T20:29:24.589Z,5.44
2022-12-04T20:34:28.619Z,5.49
2022-12-04T20:39:35.129Z,5.32
2022-12-04T20:44:40.226Z,5.30
2022-12-04T20:49:44.182Z,4.94
2022-12-04T20:54:49.653Z,4.79
2022-12-04T20:59:55.738Z,4.85
2022-12-04T21:05:00.680Z,4.78
2022-12-04T21:10:09.733Z,4.78
2022-12-04T21:15:31.149Z,4.87
2022-12-04T21:20:35.137Z,5.22
2022-12-04T21:25:41.969Z,5.12
2022-12-04T21:30:46.934Z,5.08
2022-12-04T21:35:50.984Z,5.24
2022-12-04T21:40:56.465Z,5.41
2022-12-04T21:46:07.485Z,5.62
2022-12-04T21:51:39.793Z,5.51
2022-12-04T21:56:39.527Z,5.19
2022-12-04T22:01:47.830Z,5.11
2022-12-04T22:06:52.718Z,5.11
2022-12-04T22:11:58.841Z,5.22
2022-12-04T22:17:05.448Z,5.16
2022-12-04T22:22:11.794Z,5.11
2022-12-04T22:27:17.967Z,5.15
2022-12-04T22:32:22.057Z,5.07
2022-12-04T22:37:28.595Z,4.93
2022-12-04T22:42:34.229Z,4.90
2022-12-04T22:47:39.910Z,4.89
2022-12-04T22:52:43.964Z,4.92
2022-12-04T22:57:49.515Z,5.06
2022-12-04T23:02:53.627Z,5.15
2022-12-04T23:07:57.929Z,5.56
2022-12-04T23:13:04.392Z,5.55
2022-12-04T23:18:09.244Z,5.35
2022-12-04T23:23:14.684Z,5.19
2022-12-04T23:28:20.355Z,4.98
2022-12-04T23:33:24.662Z,5.12
2022-12-04T23:38:29.942Z,5.01
2022-12-04T23:43:36.560Z,5.06
2022-12-04T23:48:41.699Z,4.93
2022-12-04T23:53:46.295Z,5.05
2022-12-04T23:58:53.909Z,5.43
